sensor_id;sensor_type;location;lat;lon;timestamp;temperature;humidity
23305;DHT22;11821;51.456;8.844;2023-08-01T10:11:38;20.30;99.90
23305;DHT22;11821;51.456;8.844;2023-08-01T10:14:06;24.60;99.90
23305;DHT22;11821;51.456;8.844;2023-08-01T10:21:29;24.40;99.90
23305;DHT22;11821;51.456;8.844;2023-08-01T10:23:58;24.20;99.90
23305;DHT22;11821;51.456;8.844;2023-08-01T10:26:24;24.10;99.90
23305;DHT22;11821;51.456;8.844;2023-08-01T10:28:52;24.20;99.90
23305;DHT22;11821;51.456;8.844;2023-08-01T10:31:19;24.00;99.90
23305;DHT22;11821;51.456;8.844;2023-08-01T10:33:48;24.40;99.90
23305;DHT22;11821;51.456;8.844;2023-08-01T10:36:19;24.50;99.90
23305;DHT22;11821;51.456;8.844;2023-08-01T10:38:56;24.10;99.90
23305;DHT22;11821;51.456;8.844;2023-08-01T11:41:43;24.00;99.90
23305;DHT22;11821;51.456;8.844;2023-08-01T11:44:10;24.50;99.90
23305;DHT22;11821;51.456;8.844;2023-08-01T11:54:09;24.70;99.90
23305;DHT22;11821;51.456;8.844;2023-08-01T11:56:38;25.50;99.90
23305;DHT22;11821;51.456;8.844;2023-08-01T11:59:15;25.30;99.90
23305;DHT22;11821;51.456;8.844;2023-08-01T12:06:37;25.00;99.90
23305;DHT22;11821;51.456;8.844;2023-08-01T12:09:12;24.40;99.90
23305;DHT22;11821;51.456;8.844;2023-08-01T12:11:40;24.40;99.90
23305;DHT22;11821;51.456;8.844;2023-08-01T12:19:04;24.10;99.90
23305;DHT22;11821;51.456;8.844;2023-08-01T12:28:51;23.60;99.90
23305;DHT22;11821;51.456;8.844;2023-08-01T12:31:18;23.70;99.90
23305;DHT22;11821;51.456;8.844;2023-08-01T12:33:45;24.10;99.90
23305;DHT22;11821;51.456;8.844;2023-08-01T12:36:15;24.60;99.90
23305;DHT22;11821;51.456;8.844;2023-08-01T12:38:42;24.60;99.90
23305;DHT22;11821;51.456;8.844;2023-08-01T12:41:08;24.60;99.90
23305;DHT22;11821;51.456;8.844;2023-08-01T12:43:35;24.80;99.90
23305;DHT22;11821;51.456;8.844;2023-08-01T12:46:01;24.50;99.90
23305;DHT22;11821;51.456;8.844;2023-08-01T12:48:28;24.00;99.90
23305;DHT22;11821;51.456;8.844;2023-08-01T12:50:55;24.00;99.90
23305;DHT22;11821;51.456;8.844;2023-08-01T12:53:21;23.90;99.90
23305;DHT22;11821;51.456;8.844;2023-08-01T12:55:51;23.70;99.90
23305;DHT22;11821;51.456;8.844;2023-08-01T12:58:17;23.60;99.90
23305;DHT22;11821;51.456;8.844;2023-08-01T13:03:11;23.60;99.90
23305;DHT22;11821;51.456;8.844;2023-08-01T13:05:38;23.40;99.90
23305;DHT22;11821;51.456;8.844;2023-08-01T13:08:06;23.30;99.90
23305;DHT22;11821;51.456;8.844;2023-08-01T15:35:07;22.90;99.90
23305;DHT22;11821;51.456;8.844;2023-08-01T15:37:33;24.40;99.90
23305;DHT22;11821;51.456;8.844;2023-08-01T15:40:00;24.20;99.90
23305;DHT22;11821;51.456;8.844;2023-08-01T15:42:26;24.20;99.90
23305;DHT22;11821;51.456;8.844;2023-08-01T15:47:19;24.20;99.90
23305;DHT22;11821;51.456;8.844;2023-08-01T15:49:45;23.80;99.90
23305;DHT22;11821;51.456;8.844;2023-08-01T19:17:56;23.70;99.90
23305;DHT22;11821;51.456;8.844;2023-08-01T19:39:57;20.60;99.90
23305;DHT22;11821;51.456;8.844;2023-08-01T19:44:49;20.20;99.90
23305;DHT22;11821;51.456;8.844;2023-08-01T19:47:16;20.10;99.90
23305;DHT22;11821;51.456;8.844;2023-08-01T19:49:42;19.90;99.90
23305;DHT22;11821;51.456;8.844;2023-08-01T19:52:08;19.90;99.90
23305;DHT22;11821;51.456;8.844;2023-08-01T19:54:35;19.90;99.90
23305;DHT22;11821;51.456;8.844;2023-08-01T19:57:02;19.70;99.90
23305;DHT22;11821;51.456;8.844;2023-08-01T19:59:28;19.70;99.90
23305;DHT22;11821;51.456;8.844;2023-08-01T21:05:29;19.70;99.90
